createdAt,value
2023-05-13T00:00:06.963Z,13.75
2023-05-13T00:02:55.699Z,13.67
2023-05-13T00:05:22.735Z,13.64
2023-05-13T00:07:50.183Z,13.59
2023-05-13T00:10:17.131Z,13.54
2023-05-13T00:12:44.420Z,13.48
2023-05-13T00:15:11.772Z,13.43
2023-05-13T00:17:39.122Z,13.32
2023-05-13T00:20:07.424Z,13.23
2023-05-13T00:22:34.630Z,13.20
2023-05-13T00:25:01.650Z,13.19
2023-05-13T00:27:28.803Z,13.17
2023-05-13T00:29:56.005Z,13.11
2023-05-13T00:32:23.249Z,13.06
2023-05-13T00:34:50.569Z,13.02
2023-05-13T00:37:18.037Z,12.95
2023-05-13T00:39:45.472Z,12.87
2023-05-13T00:42:13.673Z,12.78
2023-05-13T00:44:41.325Z,12.72
2023-05-13T00:47:11.991Z,12.69
2023-05-13T00:49:39.210Z,12.65
2023-05-13T00:52:06.900Z,12.64
2023-05-13T00:54:34.955Z,12.63
2023-05-13T00:57:02.170Z,12.66
2023-05-13T00:59:30.820Z,12.67
2023-05-13T01:02:14.324Z,12.68
2023-05-13T01:05:03.008Z,12.63
2023-05-13T01:07:52.526Z,12.61
2023-05-13T01:10:41.713Z,12.61
2023-05-13T01:13:14.454Z,12.56
2023-05-13T01:16:06.989Z,12.50
2023-05-13T01:18:43.432Z,12.45
2023-05-13T01:21:12.330Z,12.44
2023-05-13T01:23:39.542Z,12.41
2023-05-13T01:26:06.735Z,12.39
2023-05-13T01:28:34.650Z,12.37
2023-05-13T01:31:02.998Z,12.36
2023-05-13T01:33:32.020Z,12.32
2023-05-13T01:35:59.379Z,12.30
2023-05-13T01:38:28.168Z,12.30
2023-05-13T01:40:58.958Z,12.25
2023-05-13T01:43:28.090Z,12.21
2023-05-13T01:45:56.076Z,12.17
2023-05-13T01:48:24.400Z,12.08
2023-05-13T01:50:52.570Z,12.07
2023-05-13T01:53:20.256Z,12.03
2023-05-13T01:55:49.074Z,12.01
2023-05-13T01:58:16.244Z,12.02
2023-05-13T02:00:43.248Z,12.00
2023-05-13T02:03:10.864Z,11.98
2023-05-13T02:05:37.852Z,11.95
2023-05-13T02:08:07.995Z,11.92
2023-05-13T02:10:35.008Z,11.88
2023-05-13T02:13:03.844Z,11.82
2023-05-13T02:15:31.633Z,11.78
2023-05-13T02:17:59.375Z,11.77
2023-05-13T02:20:26.512Z,11.72
2023-05-13T02:22:53.686Z,11.69
2023-05-13T02:25:20.975Z,11.65
2023-05-13T02:27:48.119Z,11.57
2023-05-13T02:30:15.367Z,11.49
2023-05-13T02:32:43.962Z,11.50
2023-05-13T02:35:11.075Z,11.48
2023-05-13T02:37:38.350Z,11.44
2023-05-13T02:40:06.378Z,11.47
2023-05-13T02:42:33.602Z,11.47
2023-05-13T02:45:00.664Z,11.46
2023-05-13T02:47:32.022Z,11.47
2023-05-13T02:50:05.864Z,11.43
2023-05-13T02:52:35.822Z,11.38
2023-05-13T02:55:07.692Z,11.35
2023-05-13T02:57:37.782Z,11.29
2023-05-13T03:00:06.100Z,11.25
2023-05-13T03:02:35.000Z,11.24
2023-05-13T03:05:02.086Z,11.24
2023-05-13T03:07:29.295Z,11.23
2023-05-13T03:09:56.276Z,11.19
2023-05-13T03:12:23.715Z,11.21
2023-05-13T03:14:50.966Z,11.22
2023-05-13T03:17:18.292Z,11.23
2023-05-13T03:19:45.427Z,11.23
2023-05-13T03:22:12.593Z,11.21
2023-05-13T03:24:39.492Z,11.23
2023-05-13T03:27:06.762Z,11.20
2023-05-13T03:29:33.882Z,11.24
2023-05-13T03:32:01.123Z,11.28
2023-05-13T03:34:28.354Z,11.30
2023-05-13T03:36:55.687Z,11.31
2023-05-13T03:39:22.953Z,11.33
2023-05-13T03:41:50.208Z,11.36
2023-05-13T03:44:17.250Z,11.39
2023-05-13T03:46:44.687Z,11.40
2023-05-13T03:49:12.300Z,11.39
2023-05-13T03:51:39.874Z,11.42
2023-05-13T03:54:07.490Z,11.42
2023-05-13T03:56:34.667Z,11.44
2023-05-13T03:59:01.987Z,11.45
2023-05-13T04:01:30.114Z,11.45
2023-05-13T04:03:57.073Z,11.48
2023-05-13T04:06:24.358Z,11.49
2023-05-13T04:08:51.669Z,11.48
2023-05-13T04:11:18.900Z,11.54
2023-05-13T04:13:47.857Z,11.58
2023-05-13T04:16:17.266Z,11.62
2023-05-13T04:18:44.272Z,11.63
2023-05-13T04:21:11.537Z,11.64
2023-05-13T04:23:38.492Z,11.66
2023-05-13T04:26:05.835Z,11.71
2023-05-13T04:28:32.829Z,11.76
2023-05-13T04:31:02.849Z,11.78
2023-05-13T04:33:32.775Z,11.83
2023-05-13T04:36:00.275Z,11.85
2023-05-13T04:38:27.550Z,11.89
2023-05-13T04:40:54.891Z,11.96
2023-05-13T04:43:36.995Z,12.01
2023-05-13T04:46:04.462Z,12.07
2023-05-13T04:48:31.591Z,12.11
2023-05-13T04:50:59.018Z,12.20
2023-05-13T04:53:27.059Z,12.26
2023-05-13T05:00:50.829Z,12.44
2023-05-13T05:04:44.842Z,12.57
2023-05-13T05:07:15.529Z,12.71
2023-05-13T05:09:42.930Z,12.83
2023-05-13T05:13:44.725Z,12.99
2023-05-13T05:16:18.370Z,13.21
2023-05-13T05:18:45.802Z,13.40
2023-05-13T05:21:13.396Z,13.56
2023-05-13T05:23:41.290Z,13.70
2023-05-13T05:26:59.803Z,13.90
2023-05-13T05:34:42.349Z,14.30
2023-05-13T05:37:10.376Z,14.47
2023-05-13T05:39:38.673Z,14.67
2023-05-13T05:42:07.555Z,14.82
2023-05-13T05:44:34.851Z,15.07
2023-05-13T05:47:02.746Z,15.30
2023-05-13T05:49:29.837Z,15.50
2023-05-13T05:51:57.628Z,15.64
2023-05-13T05:54:26.879Z,15.85
2023-05-13T05:56:54.227Z,16.04
2023-05-13T05:59:21.484Z,16.26
2023-05-13T06:01:49.403Z,16.69
2023-05-13T06:04:17.394Z,17.06
2023-05-13T06:06:45.957Z,17.29
2023-05-13T06:09:12.995Z,17.55
2023-05-13T06:11:40.321Z,17.81
2023-05-13T06:14:07.272Z,18.15
2023-05-13T06:16:34.523Z,18.51
2023-05-13T06:19:02.454Z,18.77
2023-05-13T06:21:29.635Z,18.90
2023-05-13T06:23:56.553Z,19.14
2023-05-13T06:26:24.996Z,19.45
2023-05-13T06:28:51.912Z,19.64
2023-05-13T06:31:19.144Z,19.69
2023-05-13T06:33:46.946Z,19.81
2023-05-13T06:36:14.562Z,20.01
2023-05-13T06:38:41.424Z,20.26
2023-05-13T06:41:08.748Z,20.43
2023-05-13T06:43:38.801Z,20.64
2023-05-13T06:46:21.585Z,20.84
2023-05-13T06:48:52.135Z,20.98
2023-05-13T06:51:19.478Z,21.25
2023-05-13T06:53:46.412Z,21.55
2023-05-13T06:56:13.599Z,21.75
2023-05-13T06:58:40.476Z,21.88
2023-05-13T07:01:07.756Z,21.99
2023-05-13T07:03:34.885Z,22.20
2023-05-13T07:06:02.091Z,22.26
2023-05-13T07:08:29.269Z,22.42
2023-05-13T07:10:56.644Z,22.70
2023-05-13T07:13:23.647Z,22.70
2023-05-13T07:15:50.948Z,22.62
2023-05-13T07:18:17.971Z,22.64
2023-05-13T07:20:45.432Z,22.66
2023-05-13T07:23:12.496Z,22.74
2023-05-13T07:25:39.875Z,22.69
2023-05-13T07:28:07.201Z,22.61
2023-05-13T07:30:34.745Z,22.80
2023-05-13T07:33:01.766Z,23.04
2023-05-13T07:35:29.099Z,23.03
2023-05-13T07:37:55.991Z,22.95
2023-05-13T07:40:23.359Z,23.20
2023-05-13T07:42:50.472Z,23.45
2023-05-13T07:45:17.957Z,23.15
2023-05-13T07:47:44.961Z,23.17
2023-05-13T07:50:12.519Z,23.17
2023-05-13T07:52:39.525Z,23.31
2023-05-13T07:55:07.505Z,23.72
2023-05-13T07:57:34.352Z,23.88
2023-05-13T08:00:02.595Z,23.63
2023-05-13T08:02:42.718Z,24.12
2023-05-13T08:05:11.182Z,24.74
2023-05-13T08:07:38.479Z,24.23
2023-05-13T08:10:06.661Z,24.51
2023-05-13T08:12:33.816Z,24.34
2023-05-13T08:15:03.895Z,24.73
2023-05-13T08:17:30.880Z,24.84
2023-05-13T08:19:59.941Z,24.24
2023-05-13T08:22:27.515Z,24.09
2023-05-13T08:24:54.648Z,24.64
2023-05-13T08:27:21.762Z,24.36
2023-05-13T08:29:48.994Z,24.83
2023-05-13T08:32:16.265Z,24.87
2023-05-13T08:34:43.583Z,24.97
2023-05-13T08:37:10.592Z,24.25
2023-05-13T08:39:37.743Z,23.97
2023-05-13T08:42:08.030Z,24.33
2023-05-13T08:44:39.863Z,24.36
2023-05-13T08:47:25.390Z,24.20
2023-05-13T08:49:53.263Z,24.91
2023-05-13T08:52:22.819Z,25.01
2023-05-13T08:54:50.260Z,24.85
2023-05-13T08:57:17.280Z,24.72
2023-05-13T08:59:44.701Z,24.64
2023-05-13T09:02:12.167Z,24.40
2023-05-13T09:04:42.160Z,24.21
2023-05-13T09:07:10.440Z,24.62
2023-05-13T09:09:38.007Z,24.56
2023-05-13T09:12:05.864Z,24.42
2023-05-13T09:14:33.206Z,23.86
2023-05-13T09:17:02.247Z,23.65
2023-05-13T09:19:30.083Z,24.40
2023-05-13T09:21:57.573Z,24.62
2023-05-13T09:24:24.859Z,24.96
2023-05-13T09:26:52.049Z,25.54
2023-05-13T09:29:25.928Z,25.54
2023-05-13T09:31:56.344Z,25.60
2023-05-13T09:34:31.704Z,25.51
2023-05-13T09:37:08.634Z,24.92
2023-05-13T09:39:42.971Z,25.48
2023-05-13T09:42:17.550Z,25.29
2023-05-13T09:44:46.575Z,25.87
2023-05-13T09:47:17.787Z,25.15
2023-05-13T09:49:56.866Z,26.27
2023-05-13T09:52:23.861Z,26.64
2023-05-13T09:54:51.070Z,26.59
2023-05-13T09:57:18.073Z,25.80
2023-05-13T09:59:45.224Z,26.01
2023-05-13T10:02:15.568Z,25.31
2023-05-13T10:04:43.667Z,25.06
2023-05-13T10:07:12.405Z,25.74
2023-05-13T10:09:44.298Z,24.91
2023-05-13T10:12:14.969Z,25.02
2023-05-13T10:14:44.098Z,24.55
2023-05-13T10:17:12.311Z,25.10
2023-05-13T10:19:40.694Z,24.92
2023-05-13T10:22:08.457Z,25.24
2023-05-13T10:24:38.797Z,24.75
2023-05-13T10:27:08.313Z,24.37
2023-05-13T10:29:38.823Z,25.38
2023-05-13T10:32:08.165Z,25.54
2023-05-13T10:34:38.095Z,25.32
2023-05-13T10:37:25.627Z,24.77
2023-05-13T10:40:29.114Z,24.61
2023-05-13T10:43:20.421Z,25.24
2023-05-13T10:45:56.450Z,25.96
2023-05-13T10:48:24.156Z,25.95
2023-05-13T10:50:57.306Z,26.30
2023-05-13T10:53:28.652Z,26.64
2023-05-13T10:55:59.358Z,26.57
2023-05-13T10:58:32.287Z,26.12
2023-05-13T11:01:25.203Z,25.96
2023-05-13T11:03:55.686Z,25.70
2023-05-13T11:06:29.667Z,26.21
2023-05-13T11:08:56.653Z,26.39
2023-05-13T11:11:31.254Z,26.31
2023-05-13T11:14:22.325Z,26.15
2023-05-13T11:16:59.761Z,26.26
2023-05-13T11:19:48.384Z,26.59
2023-05-13T11:22:26.111Z,26.01
2023-05-13T11:25:09.297Z,25.88
2023-05-13T11:27:43.215Z,26.05
2023-05-13T11:30:24.403Z,26.35
2023-05-13T11:32:52.248Z,26.22
2023-05-13T11:35:21.791Z,26.09
2023-05-13T11:37:49.303Z,26.10
2023-05-13T11:40:31.634Z,25.88
2023-05-13T11:43:01.234Z,25.40
2023-05-13T11:45:30.120Z,25.48
2023-05-13T11:47:58.048Z,24.99
2023-05-13T11:50:30.458Z,25.34
2023-05-13T11:53:02.335Z,25.37
2023-05-13T11:55:32.622Z,25.45
2023-05-13T11:58:00.346Z,25.22
2023-05-13T12:00:33.584Z,25.00
2023-05-13T12:03:08.917Z,25.00
2023-05-13T12:05:36.288Z,24.75
2023-05-13T12:08:03.927Z,24.90
2023-05-13T12:10:30.921Z,23.92
2023-05-13T12:12:58.590Z,24.34
2023-05-13T12:15:26.126Z,24.30
2023-05-13T12:17:54.552Z,23.96
2023-05-13T12:20:24.746Z,24.08
2023-05-13T12:22:56.934Z,24.18
2023-05-13T12:25:37.106Z,24.35
2023-05-13T12:28:25.249Z,24.34
2023-05-13T12:31:02.203Z,24.45
2023-05-13T12:33:49.918Z,24.56
2023-05-13T12:36:35.519Z,24.63
2023-05-13T12:39:11.030Z,24.68
2023-05-13T12:41:50.793Z,24.28
2023-05-13T12:44:19.400Z,24.27
2023-05-13T12:47:02.142Z,23.87
2023-05-13T12:49:30.162Z,24.12
2023-05-13T12:51:57.304Z,24.42
2023-05-13T12:54:24.620Z,24.25
2023-05-13T12:56:52.317Z,23.75
2023-05-13T12:59:19.526Z,23.50
2023-05-13T13:01:48.273Z,24.02
2023-05-13T13:04:16.966Z,24.16
2023-05-13T13:06:44.080Z,24.03
2023-05-13T13:09:11.338Z,23.97
2023-05-13T13:11:39.175Z,24.10
2023-05-13T13:14:06.486Z,24.20
2023-05-13T13:16:33.703Z,23.71
2023-05-13T13:19:01.944Z,23.81
2023-05-13T13:21:29.095Z,24.01
2023-05-13T13:23:56.454Z,24.10
2023-05-13T13:26:23.665Z,24.12
2023-05-13T13:28:50.946Z,24.22
2023-05-13T13:31:18.203Z,24.08
2023-05-13T13:33:45.674Z,23.86
2023-05-13T13:36:12.714Z,23.16
2023-05-13T13:38:40.254Z,23.33
2023-05-13T13:41:07.550Z,23.58
2023-05-13T13:43:34.738Z,23.54
2023-05-13T13:46:02.509Z,23.55
2023-05-13T13:48:29.804Z,22.79
2023-05-13T13:50:58.480Z,22.48
2023-05-13T13:53:25.767Z,22.71
2023-05-13T13:55:52.760Z,22.66
2023-05-13T13:58:20.002Z,22.65
2023-05-13T14:00:46.898Z,22.89
2023-05-13T14:03:14.283Z,22.98
2023-05-13T14:05:41.403Z,22.75
2023-05-13T14:08:08.744Z,22.33
2023-05-13T14:10:35.721Z,22.42
2023-05-13T14:13:03.441Z,22.48
2023-05-13T14:15:30.832Z,22.31
2023-05-13T14:17:58.169Z,22.39
2023-05-13T14:20:25.285Z,22.32
2023-05-13T14:22:52.564Z,22.06
2023-05-13T14:25:19.454Z,22.19
2023-05-13T14:27:46.754Z,22.14
2023-05-13T14:30:13.889Z,21.99
2023-05-13T14:32:45.703Z,21.77
2023-05-13T14:35:13.470Z,21.79
2023-05-13T14:37:41.226Z,21.78
2023-05-13T14:40:09.657Z,22.04
2023-05-13T14:42:36.981Z,22.13
2023-05-13T14:45:04.663Z,21.82
2023-05-13T14:47:32.168Z,21.03
2023-05-13T14:49:59.237Z,20.51
2023-05-13T14:52:26.523Z,21.01
2023-05-13T14:54:54.235Z,21.32
2023-05-13T14:57:21.677Z,21.12
2023-05-13T14:59:48.678Z,21.18
2023-05-13T15:02:17.295Z,21.49
2023-05-13T15:04:44.630Z,21.17
2023-05-13T15:07:11.990Z,20.90
2023-05-13T15:09:38.977Z,20.99
2023-05-13T15:12:07.164Z,21.27
2023-05-13T15:14:34.106Z,20.95
2023-05-13T15:17:01.405Z,21.12
2023-05-13T15:19:28.570Z,21.05
2023-05-13T15:21:55.752Z,21.08
2023-05-13T15:24:22.727Z,20.64
2023-05-13T15:26:50.591Z,20.71
2023-05-13T15:29:17.721Z,20.37
2023-05-13T15:31:44.877Z,20.79
2023-05-13T15:34:11.932Z,20.88
2023-05-13T15:36:39.102Z,20.88
2023-05-13T15:39:06.697Z,20.79
2023-05-13T15:41:34.120Z,20.38
2023-05-13T15:44:01.223Z,20.47
2023-05-13T15:46:28.646Z,20.29
2023-05-13T15:48:55.875Z,20.42
2023-05-13T15:51:23.006Z,20.13
2023-05-13T15:53:50.783Z,20.33
2023-05-13T15:56:18.413Z,20.14
2023-05-13T15:58:45.608Z,20.15
2023-05-13T16:01:12.924Z,20.04
2023-05-13T16:03:40.083Z,20.18
2023-05-13T16:06:07.279Z,20.32
2023-05-13T16:08:34.224Z,20.35
2023-05-13T16:11:03.730Z,20.51
2023-05-13T16:13:30.703Z,20.27
2023-05-13T16:15:57.938Z,20.63
2023-05-13T16:18:24.995Z,20.91
2023-05-13T16:20:52.623Z,20.84
2023-05-13T16:23:19.644Z,20.97
2023-05-13T16:25:47.246Z,21.01
2023-05-13T16:28:14.320Z,21.02
2023-05-13T16:30:42.543Z,21.13
2023-05-13T16:33:09.769Z,21.06
2023-05-13T16:35:37.268Z,20.98
2023-05-13T16:38:04.533Z,20.91
2023-05-13T16:40:32.024Z,20.69
2023-05-13T16:43:02.525Z,20.91
2023-05-13T16:45:31.100Z,21.17
2023-05-13T16:48:06.001Z,21.31
2023-05-13T16:50:33.852Z,21.25
2023-05-13T16:53:00.752Z,21.11
2023-05-13T16:55:28.037Z,20.90
2023-05-13T16:57:55.413Z,20.81
2023-05-13T17:00:22.810Z,20.90
2023-05-13T17:02:49.972Z,20.86
2023-05-13T17:05:18.585Z,20.91
2023-05-13T17:07:45.583Z,20.91
2023-05-13T17:10:13.069Z,20.97
2023-05-13T17:12:40.141Z,20.92
2023-05-13T17:15:07.985Z,20.86
2023-05-13T17:17:34.897Z,20.99
2023-05-13T17:20:02.252Z,20.95
2023-05-13T17:22:29.145Z,20.85
2023-05-13T17:24:56.424Z,20.91
2023-05-13T17:27:23.378Z,20.68
2023-05-13T17:29:50.628Z,20.59
2023-05-13T17:32:17.865Z,20.69
2023-05-13T17:34:45.402Z,20.72
2023-05-13T17:37:12.278Z,20.60
2023-05-13T17:39:39.533Z,20.58
2023-05-13T17:42:06.810Z,20.59
2023-05-13T17:44:34.072Z,20.56
2023-05-13T17:47:01.721Z,20.53
2023-05-13T17:49:29.008Z,20.41
2023-05-13T17:51:55.888Z,20.39
2023-05-13T17:54:23.239Z,20.40
2023-05-13T17:56:50.646Z,20.32
2023-05-13T17:59:18.130Z,20.29
2023-05-13T18:05:11.999Z,20.10
2023-05-13T18:07:39.235Z,20.00
2023-05-13T18:10:07.408Z,19.89
2023-05-13T18:12:34.805Z,19.80
2023-05-13T18:15:01.832Z,19.71
2023-05-13T18:17:29.120Z,19.58
2023-05-13T18:19:59.220Z,19.18
2023-05-13T18:22:27.066Z,19.13
2023-05-13T18:24:54.096Z,19.13
2023-05-13T18:27:21.858Z,19.10
2023-05-13T18:29:48.806Z,19.08
2023-05-13T18:32:16.017Z,18.99
2023-05-13T18:34:42.994Z,18.94
2023-05-13T18:37:10.373Z,18.93
2023-05-13T18:39:37.501Z,18.91
2023-05-13T18:42:05.427Z,18.83
2023-05-13T18:44:32.320Z,18.74
2023-05-13T18:46:59.720Z,18.68
2023-05-13T18:49:29.626Z,18.60
2023-05-13T18:51:56.816Z,18.48
2023-05-13T18:54:27.574Z,18.35
2023-05-13T18:56:56.072Z,18.19
2023-05-13T18:59:23.118Z,18.09
2023-05-13T19:01:50.596Z,17.92
2023-05-13T19:04:17.951Z,17.75
2023-05-13T19:06:45.737Z,17.67
2023-05-13T19:09:12.644Z,17.64
2023-05-13T19:11:39.924Z,17.53
2023-05-13T19:14:07.040Z,17.41
2023-05-13T19:16:34.461Z,17.28
2023-05-13T19:19:03.396Z,17.16
2023-05-13T19:21:30.835Z,17.07
2023-05-13T19:23:58.628Z,17.06
2023-05-13T19:26:26.214Z,17.12
2023-05-13T19:28:53.323Z,17.08
2023-05-13T19:31:21.895Z,17.07
2023-05-13T19:33:48.997Z,16.91
2023-05-13T19:36:16.280Z,16.91
2023-05-13T19:38:43.419Z,16.85
2023-05-13T19:41:10.714Z,16.81
2023-05-13T19:43:37.686Z,16.77
2023-05-13T19:46:04.999Z,16.74
2023-05-13T19:48:31.966Z,16.73
2023-05-13T19:50:59.166Z,16.69
2023-05-13T19:53:26.170Z,16.65
2023-05-13T19:55:53.579Z,16.63
2023-05-13T19:58:20.444Z,16.53
2023-05-13T20:00:47.775Z,16.44
2023-05-13T20:03:15.086Z,16.40
2023-05-13T20:05:42.663Z,16.33
2023-05-13T20:08:09.624Z,16.30
2023-05-13T20:10:36.954Z,16.21
2023-05-13T20:13:04.724Z,16.21
2023-05-13T20:15:32.478Z,16.17
2023-05-13T20:17:59.444Z,16.12
2023-05-13T20:20:26.703Z,16.06
2023-05-13T20:22:53.616Z,16.00
2023-05-13T20:25:21.498Z,15.92
2023-05-13T20:27:48.441Z,15.84
2023-05-13T20:30:16.505Z,15.76
2023-05-13T20:32:43.602Z,15.69
2023-05-13T20:35:11.009Z,15.64
2023-05-13T20:37:37.973Z,15.60
2023-05-13T20:40:06.757Z,15.54
2023-05-13T20:42:33.842Z,15.46
2023-05-13T20:45:01.136Z,15.44
2023-05-13T20:47:28.470Z,15.40
2023-05-13T20:49:55.656Z,15.36
2023-05-13T20:52:22.558Z,15.31
2023-05-13T20:54:49.905Z,15.25
2023-05-13T20:57:16.863Z,15.22
2023-05-13T20:59:44.162Z,15.18
2023-05-13T21:02:11.315Z,15.13
2023-05-13T21:04:38.636Z,15.03
2023-05-13T21:07:06.686Z,14.99
2023-05-13T21:09:34.210Z,14.95
2023-05-13T21:12:01.366Z,14.91
2023-05-13T21:14:28.727Z,14.83
2023-05-13T21:16:55.762Z,14.77
2023-05-13T21:19:24.854Z,14.74
2023-05-13T21:21:51.771Z,14.69
2023-05-13T21:24:19.840Z,14.63
2023-05-13T21:26:47.291Z,14.57
2023-05-13T21:29:15.162Z,14.51
2023-05-13T21:31:43.016Z,14.43
2023-05-13T21:34:10.538Z,14.39
2023-05-13T21:36:38.930Z,14.34
2023-05-13T21:39:07.687Z,14.28
2023-05-13T21:41:36.055Z,14.23
2023-05-13T21:44:05.442Z,14.17
2023-05-13T21:46:32.570Z,14.10
2023-05-13T21:49:00.496Z,14.01
2023-05-13T21:51:28.630Z,13.98
2023-05-13T21:53:55.921Z,13.93
2023-05-13T21:56:22.848Z,13.85
2023-05-13T21:58:50.536Z,13.74
2023-05-13T22:01:18.066Z,13.71
2023-05-13T22:03:45.472Z,13.69
2023-05-13T22:06:12.415Z,13.75
2023-05-13T22:08:39.923Z,13.74
2023-05-13T22:11:07.414Z,13.70
2023-05-13T22:13:34.668Z,13.63
2023-05-13T22:16:01.584Z,13.56
2023-05-13T22:18:29.027Z,13.52
2023-05-13T22:20:56.242Z,13.47
2023-05-13T22:23:23.549Z,13.42
2023-05-13T22:25:50.700Z,13.39
2023-05-13T22:28:18.032Z,13.35
2023-05-13T22:30:44.951Z,13.23
2023-05-13T22:33:12.230Z,13.16
2023-05-13T22:35:39.444Z,13.08
2023-05-13T22:38:06.759Z,13.01
2023-05-13T22:40:33.658Z,12.94
2023-05-13T22:43:00.984Z,12.91
2023-05-13T22:45:28.249Z,12.92
2023-05-13T22:47:55.990Z,12.90
2023-05-13T22:50:24.567Z,12.86
2023-05-13T22:52:52.136Z,12.84
2023-05-13T22:55:19.132Z,12.79
2023-05-13T22:57:46.319Z,12.75
2023-05-13T23:00:13.906Z,12.69
2023-05-13T23:02:41.169Z,12.67
2023-05-13T23:05:08.405Z,12.61
2023-05-13T23:07:35.835Z,12.51
2023-05-13T23:10:02.961Z,12.44
2023-05-13T23:12:30.597Z,12.41
2023-05-13T23:14:57.633Z,12.38
2023-05-13T23:17:24.988Z,12.34
2023-05-13T23:19:51.876Z,12.33
2023-05-13T23:22:19.139Z,12.29
2023-05-13T23:24:46.098Z,12.26
2023-05-13T23:27:13.442Z,12.17
2023-05-13T23:29:41.516Z,12.11
2023-05-13T23:32:09.067Z,12.09
2023-05-13T23:34:36.116Z,12.05
2023-05-13T23:37:03.468Z,11.97
2023-05-13T23:39:30.605Z,11.88
2023-05-13T23:41:57.993Z,11.82
2023-05-13T23:44:25.075Z,11.79
2023-05-13T23:46:52.569Z,11.77
2023-05-13T23:49:19.774Z,11.73
2023-05-13T23:51:47.179Z,11.68
2023-05-13T23:54:14.059Z,11.64
2023-05-13T23:56:41.360Z,11.61
2023-05-13T23:59:08.589Z,11.56
